createdAt,value
2023-02-08T00:01:19.137Z,20.03
2023-02-08T00:03:47.580Z,19.97
2023-02-08T00:06:17.565Z,20.27
2023-02-08T00:08:46.333Z,19.83
2023-02-08T00:11:14.614Z,19.50
2023-02-08T00:13:43.025Z,20.50
2023-02-08T00:16:12.422Z,20.87
2023-02-08T00:18:40.723Z,19.53
2023-02-08T00:21:11.070Z,19.83
2023-02-08T00:23:40.754Z,19.90
2023-02-08T00:26:09.566Z,20.40
2023-02-08T00:28:38.267Z,20.40
2023-02-08T00:31:07.071Z,19.80
2023-02-08T00:33:36.021Z,20.70
2023-02-08T00:36:06.401Z,19.87
2023-02-08T00:38:34.903Z,20.03
2023-02-08T00:41:04.882Z,20.17
2023-02-08T00:43:33.312Z,20.20
2023-02-08T00:46:01.400Z,20.03
2023-02-08T00:48:30.002Z,22.37
2023-02-08T00:51:00.041Z,20.93
2023-02-08T00:53:28.193Z,20.23
2023-02-08T00:55:57.574Z,19.43
2023-02-08T00:58:28.200Z,20.80
2023-02-08T01:00:56.620Z,19.80
2023-02-08T01:03:25.460Z,20.87
2023-02-08T01:05:53.924Z,19.97
2023-02-08T01:08:22.391Z,20.10
2023-02-08T01:10:50.487Z,19.37
2023-02-08T01:13:18.769Z,20.90
2023-02-08T01:15:48.283Z,20.40
2023-02-08T01:18:16.844Z,20.20
2023-02-08T01:20:44.919Z,20.27
2023-02-08T01:23:12.977Z,20.23
2023-02-08T01:25:41.920Z,20.60
2023-02-08T01:28:10.207Z,19.27
2023-02-08T01:30:39.288Z,21.20
2023-02-08T01:33:08.990Z,20.63
2023-02-08T01:35:37.100Z,21.27
2023-02-08T01:38:05.903Z,21.60
2023-02-08T01:40:33.965Z,22.07
2023-02-08T01:43:02.038Z,20.87
2023-02-08T01:45:32.011Z,21.60
2023-02-08T01:48:05.951Z,21.93
2023-02-08T01:50:43.000Z,20.63
2023-02-08T01:53:11.939Z,21.67
2023-02-08T01:55:44.308Z,20.87
2023-02-08T01:58:15.651Z,21.13
2023-02-08T02:00:44.015Z,20.67
2023-02-08T02:03:14.589Z,22.60
2023-02-08T02:05:46.719Z,21.60
2023-02-08T02:08:15.108Z,20.47
2023-02-08T02:10:44.916Z,23.13
2023-02-08T02:13:15.563Z,21.80
2023-02-08T02:15:46.130Z,21.67
2023-02-08T02:18:19.158Z,22.03
2023-02-08T02:21:04.343Z,21.50
2023-02-08T02:24:06.828Z,21.23
2023-02-08T02:27:13.903Z,20.80
2023-02-08T02:30:24.761Z,20.40
2023-02-08T02:33:06.903Z,21.30
2023-02-08T02:35:45.197Z,21.40
2023-02-08T02:38:21.857Z,20.77
2023-02-08T02:41:08.108Z,20.07
2023-02-08T02:43:46.487Z,21.77
2023-02-08T02:46:26.043Z,20.50
2023-02-08T02:49:03.462Z,20.30
2023-02-08T02:51:41.253Z,21.07
2023-02-08T02:54:15.720Z,19.50
2023-02-08T02:56:46.885Z,20.77
2023-02-08T02:59:17.099Z,19.37
2023-02-08T03:01:47.536Z,22.33
2023-02-08T03:04:19.191Z,20.60
2023-02-08T03:07:01.766Z,19.37
2023-02-08T03:09:46.849Z,20.13
2023-02-08T03:12:29.283Z,19.70
2023-02-08T03:15:06.427Z,20.67
2023-02-08T03:17:51.349Z,18.87
2023-02-08T03:20:26.159Z,20.07
2023-02-08T03:23:02.293Z,19.43
2023-02-08T03:25:37.910Z,20.90
2023-02-08T03:28:12.974Z,20.67
2023-02-08T03:30:51.392Z,21.63
2023-02-08T03:33:26.863Z,19.43
2023-02-08T03:36:03.296Z,19.57
2023-02-08T03:38:35.819Z,18.23
2023-02-08T03:41:07.751Z,21.77
2023-02-08T03:43:41.336Z,20.60
2023-02-08T03:46:13.122Z,21.07
2023-02-08T03:48:47.545Z,19.23
2023-02-08T03:51:17.960Z,19.87
2023-02-08T03:53:48.172Z,19.50
2023-02-08T03:56:21.998Z,20.27
2023-02-08T03:58:57.626Z,19.40
2023-02-08T04:01:31.599Z,18.47
2023-02-08T04:04:01.129Z,20.13
2023-02-08T04:06:30.984Z,20.20
2023-02-08T04:08:59.151Z,20.70
2023-02-08T04:11:27.229Z,18.97
2023-02-08T04:13:55.355Z,20.17
2023-02-08T04:16:23.477Z,20.00
2023-02-08T04:18:51.574Z,19.77
2023-02-08T04:21:19.653Z,19.67
2023-02-08T04:23:49.167Z,20.13
2023-02-08T04:26:17.240Z,20.67
2023-02-08T04:28:45.336Z,19.87
2023-02-08T04:31:13.509Z,19.63
2023-02-08T04:33:41.691Z,18.53
2023-02-08T04:36:10.735Z,19.30
2023-02-08T04:38:38.914Z,21.30
2023-02-08T04:41:08.567Z,20.97
2023-02-08T04:43:36.838Z,20.37
2023-02-08T04:46:05.352Z,19.43
2023-02-08T04:48:33.552Z,17.00
2023-02-08T04:51:01.785Z,19.67
2023-02-08T04:53:29.998Z,18.40
2023-02-08T04:55:58.122Z,17.57
2023-02-08T04:58:27.619Z,17.60
2023-02-08T05:00:55.788Z,16.67
2023-02-08T05:03:24.110Z,17.20
2023-02-08T05:05:58.734Z,16.73
2023-02-08T05:08:27.584Z,16.50
2023-02-08T05:10:56.128Z,16.60
2023-02-08T05:13:24.315Z,16.53
2023-02-08T05:15:54.183Z,18.37
2023-02-08T05:18:22.428Z,18.23
2023-02-08T05:20:56.143Z,18.27
2023-02-08T05:23:24.301Z,18.93
2023-02-08T05:25:52.816Z,20.07
2023-02-08T05:28:21.184Z,22.30
2023-02-08T05:30:49.518Z,20.57
2023-02-08T05:33:19.685Z,19.57
2023-02-08T05:35:47.815Z,19.37
2023-02-08T05:38:16.138Z,17.40
2023-02-08T05:40:44.233Z,19.17
2023-02-08T05:43:12.367Z,18.43
2023-02-08T05:45:40.494Z,17.17
2023-02-08T05:48:08.710Z,18.63
2023-02-08T05:50:38.329Z,18.17
2023-02-08T05:53:06.573Z,17.97
2023-02-08T05:55:34.788Z,18.30
2023-02-08T05:58:02.993Z,18.87
2023-02-08T06:00:31.096Z,17.90
2023-02-08T06:02:59.681Z,16.03
2023-02-08T06:05:27.772Z,16.10
2023-02-08T06:07:57.499Z,15.27
2023-02-08T06:10:25.686Z,16.73
2023-02-08T06:12:53.903Z,16.10
2023-02-08T06:15:22.064Z,16.93
2023-02-08T06:17:50.259Z,15.57
2023-02-08T06:20:18.829Z,14.97
2023-02-08T06:22:46.980Z,16.00
2023-02-08T06:25:16.676Z,15.50
2023-02-08T06:27:44.806Z,15.10
2023-02-08T06:30:13.615Z,16.50
2023-02-08T06:32:41.741Z,14.80
2023-02-08T06:35:10.313Z,14.97
2023-02-08T06:37:38.848Z,16.40
2023-02-08T06:40:07.943Z,16.70
2023-02-08T06:42:37.521Z,16.90
2023-02-08T06:45:08.375Z,17.67
2023-02-08T06:47:36.772Z,17.73
2023-02-08T06:50:05.233Z,25.03
2023-02-08T06:52:33.362Z,24.27
2023-02-08T06:55:01.530Z,29.17
2023-02-08T06:57:29.727Z,27.93
2023-02-08T06:59:59.220Z,29.20
2023-02-08T07:02:27.813Z,24.63
2023-02-08T07:04:55.986Z,25.57
2023-02-08T07:07:24.159Z,23.97
2023-02-08T07:09:52.315Z,21.87
2023-02-08T07:12:20.416Z,23.77
2023-02-08T07:14:48.537Z,19.20
2023-02-08T07:17:18.064Z,18.57
2023-02-08T07:19:46.205Z,17.77
2023-02-08T07:22:14.318Z,16.83
2023-02-08T07:24:43.024Z,15.03
2023-02-08T07:27:13.148Z,15.70
2023-02-08T07:29:41.593Z,15.67
2023-02-08T07:32:11.604Z,15.67
2023-02-08T07:34:41.537Z,15.93
2023-02-08T07:37:09.682Z,19.80
2023-02-08T07:39:37.898Z,23.70
2023-02-08T07:42:07.412Z,24.13
2023-02-08T07:44:42.544Z,25.53
2023-02-08T07:47:10.913Z,21.17
2023-02-08T07:49:39.049Z,17.07
2023-02-08T07:52:08.607Z,16.57
2023-02-08T07:54:36.733Z,13.63
2023-02-08T07:57:05.062Z,13.27
2023-02-08T07:59:33.234Z,12.47
2023-02-08T08:02:01.419Z,12.80
2023-02-08T08:04:29.570Z,18.77
2023-02-08T08:06:57.708Z,29.23
2023-02-08T08:09:27.321Z,33.70
2023-02-08T08:11:55.470Z,15.10
2023-02-08T08:14:23.662Z,12.53
2023-02-08T08:16:51.804Z,13.07
2023-02-08T08:19:19.951Z,14.60
2023-02-08T08:21:48.064Z,15.10
2023-02-08T08:24:16.216Z,12.87
2023-02-08T08:26:45.737Z,12.00
2023-02-08T08:29:14.400Z,12.07
2023-02-08T08:31:44.380Z,13.37
2023-02-08T08:34:12.605Z,11.70
2023-02-08T08:36:40.749Z,11.37
2023-02-08T08:39:08.968Z,10.97
2023-02-08T08:41:37.356Z,11.03
2023-02-08T08:44:07.251Z,12.40
2023-02-08T08:46:35.462Z,11.17
2023-02-08T08:49:03.619Z,12.73
2023-02-08T08:51:35.291Z,11.73
2023-02-08T08:54:03.697Z,10.17
2023-02-08T08:56:31.845Z,11.53
2023-02-08T08:59:00.577Z,12.17
2023-02-08T09:01:31.425Z,11.00
2023-02-08T09:04:00.492Z,12.13
2023-02-08T09:06:28.721Z,10.20
2023-02-08T09:08:56.853Z,8.70
2023-02-08T09:11:25.191Z,9.07
2023-02-08T09:13:56.163Z,7.90
2023-02-08T09:16:25.722Z,8.80
2023-02-08T09:18:55.352Z,10.27
2023-02-08T09:21:25.924Z,9.67
2023-02-08T09:23:54.119Z,9.27
2023-02-08T09:26:22.972Z,9.17
2023-02-08T09:28:51.089Z,9.00
2023-02-08T09:31:21.845Z,8.80
2023-02-08T09:33:51.166Z,8.60
2023-02-08T09:36:21.604Z,7.83
2023-02-08T09:38:50.873Z,9.20
2023-02-08T09:41:34.246Z,9.43
2023-02-08T09:44:16.974Z,9.70
2023-02-08T09:46:53.410Z,8.40
2023-02-08T09:49:27.683Z,8.10
2023-02-08T09:52:01.807Z,9.10
2023-02-08T09:54:34.534Z,8.87
2023-02-08T09:57:07.221Z,9.13
2023-02-08T09:59:36.592Z,9.40
2023-02-08T10:02:18.728Z,8.80
2023-02-08T10:04:58.052Z,8.60
2023-02-08T10:07:28.770Z,8.93
2023-02-08T10:10:00.417Z,10.17
2023-02-08T10:12:39.269Z,9.03
2023-02-08T10:15:22.323Z,9.60
2023-02-08T10:18:02.307Z,9.87
2023-02-08T10:20:41.700Z,9.40
2023-02-08T10:23:24.731Z,9.40
2023-02-08T10:26:07.883Z,8.63
2023-02-08T10:28:50.854Z,8.43
2023-02-08T10:31:30.697Z,10.50
2023-02-08T10:34:03.639Z,9.23
2023-02-08T10:36:36.412Z,10.00
2023-02-08T10:39:16.202Z,8.93
2023-02-08T10:41:45.825Z,9.73
2023-02-08T10:44:28.162Z,9.83
2023-02-08T10:47:10.015Z,10.23
2023-02-08T10:49:44.129Z,8.93
2023-02-08T10:52:12.439Z,7.73
2023-02-08T10:54:42.073Z,7.47
2023-02-08T10:57:16.877Z,9.97
2023-02-08T10:59:50.967Z,9.13
2023-02-08T11:02:23.878Z,9.27
2023-02-08T11:05:00.186Z,9.77
2023-02-08T11:07:28.489Z,8.37
2023-02-08T11:10:15.935Z,10.43
2023-02-08T11:12:54.755Z,9.37
2023-02-08T11:15:26.347Z,8.50
2023-02-08T11:17:58.121Z,8.93
2023-02-08T11:20:32.585Z,8.00
2023-02-08T11:23:01.048Z,8.20
2023-02-08T11:25:37.239Z,8.07
2023-02-08T11:28:06.671Z,9.27
2023-02-08T11:30:34.890Z,8.57
2023-02-08T11:33:19.598Z,7.93
2023-02-08T11:36:08.392Z,7.73
2023-02-08T11:38:38.054Z,8.03
2023-02-08T11:41:19.002Z,6.90
2023-02-08T11:43:58.463Z,7.30
2023-02-08T11:46:28.875Z,7.27
2023-02-08T11:48:57.722Z,6.57
2023-02-08T11:51:30.499Z,6.70
2023-02-08T11:54:01.669Z,5.80
2023-02-08T11:56:33.326Z,6.80
2023-02-08T11:59:18.315Z,7.10
2023-02-08T12:01:46.769Z,5.90
2023-02-08T12:04:17.422Z,5.17
2023-02-08T12:07:10.240Z,5.63
2023-02-08T12:10:12.036Z,5.80
2023-02-08T12:12:58.246Z,5.90
2023-02-08T12:15:51.342Z,6.03
2023-02-08T12:18:45.551Z,5.63
2023-02-08T12:21:19.251Z,5.87
2023-02-08T12:23:54.316Z,4.93
2023-02-08T12:26:35.469Z,5.53
2023-02-08T12:29:38.432Z,6.00
2023-02-08T12:32:32.862Z,4.93
2023-02-08T12:35:43.295Z,5.00
2023-02-08T12:38:44.787Z,6.27
2023-02-08T12:41:22.634Z,6.00
2023-02-08T12:44:02.348Z,6.23
2023-02-08T12:47:00.846Z,6.53
2023-02-08T12:49:46.907Z,6.27
2023-02-08T12:52:26.280Z,6.57
2023-02-08T12:54:58.972Z,6.23
2023-02-08T12:57:31.897Z,6.13
2023-02-08T13:00:04.340Z,5.07
2023-02-08T13:02:44.791Z,5.80
2023-02-08T13:05:18.887Z,5.30
2023-02-08T13:07:50.522Z,5.63
2023-02-08T13:10:27.936Z,6.00
2023-02-08T13:12:59.372Z,6.80
2023-02-08T13:15:36.892Z,6.93
2023-02-08T13:18:15.733Z,6.77
2023-02-08T13:20:47.191Z,6.07
2023-02-08T13:23:22.285Z,6.20
2023-02-08T13:25:53.415Z,7.07
2023-02-08T13:28:24.050Z,7.53
2023-02-08T13:30:59.875Z,7.67
2023-02-08T13:33:36.912Z,8.07
2023-02-08T13:36:06.347Z,7.60
2023-02-08T13:38:37.486Z,7.30
2023-02-08T13:41:09.620Z,7.00
2023-02-08T13:43:42.962Z,7.57
2023-02-08T13:46:12.614Z,7.40
2023-02-08T13:48:50.895Z,7.00
2023-02-08T13:52:02.324Z,6.63
2023-02-08T13:54:30.665Z,7.20
2023-02-08T13:56:58.918Z,7.20
2023-02-08T13:59:34.213Z,8.77
2023-02-08T14:02:27.059Z,7.10
2023-02-08T14:05:20.588Z,7.37
2023-02-08T14:07:49.995Z,7.20
2023-02-08T14:10:37.540Z,7.77
2023-02-08T14:13:18.538Z,8.23
2023-02-08T14:15:47.898Z,7.93
2023-02-08T14:18:25.574Z,7.93
2023-02-08T14:21:03.238Z,7.27
2023-02-08T14:23:33.642Z,7.47
2023-02-08T14:26:10.643Z,7.27
2023-02-08T14:28:44.001Z,7.63
2023-02-08T14:31:14.187Z,7.00
2023-02-08T14:33:45.051Z,7.13
2023-02-08T14:36:28.866Z,6.73
2023-02-08T14:39:24.518Z,6.57
2023-02-08T14:41:57.299Z,6.57
2023-02-08T14:45:03.605Z,7.23
2023-02-08T14:48:17.702Z,6.30
2023-02-08T14:51:16.626Z,7.50
2023-02-08T14:53:50.766Z,6.80
2023-02-08T14:56:23.785Z,6.57
2023-02-08T14:58:56.431Z,6.37
2023-02-08T15:01:34.848Z,6.10
2023-02-08T15:04:04.077Z,7.67
2023-02-08T15:06:59.714Z,7.03
2023-02-08T15:09:33.602Z,7.37
2023-02-08T15:12:05.255Z,6.97
2023-02-08T15:14:36.878Z,7.00
2023-02-08T15:17:05.293Z,6.87
2023-02-08T15:19:37.867Z,6.53
2023-02-08T15:22:20.497Z,6.63
2023-02-08T15:24:55.182Z,7.20
2023-02-08T15:27:25.324Z,7.30
2023-02-08T15:29:53.845Z,7.83
2023-02-08T15:32:26.649Z,7.27
2023-02-08T15:34:56.726Z,7.30
2023-02-08T15:37:25.824Z,7.07
2023-02-08T15:39:58.038Z,8.67
2023-02-08T15:42:28.937Z,7.87
2023-02-08T15:44:57.689Z,7.83
2023-02-08T15:47:29.763Z,8.27
2023-02-08T15:49:59.744Z,7.90
2023-02-08T15:52:36.257Z,7.83
2023-02-08T15:55:08.157Z,6.83
2023-02-08T15:57:40.651Z,7.50
2023-02-08T16:00:16.849Z,7.47
2023-02-08T16:02:46.046Z,7.53
2023-02-08T16:05:22.000Z,6.93
2023-02-08T16:07:51.870Z,7.67
2023-02-08T16:10:31.407Z,8.10
2023-02-08T16:13:02.189Z,7.03
2023-02-08T16:15:38.832Z,8.33
2023-02-08T16:18:07.761Z,6.67
2023-02-08T16:20:37.270Z,7.47
2023-02-08T16:23:24.743Z,7.87
2023-02-08T16:25:54.623Z,7.67
2023-02-08T16:28:28.052Z,7.77
2023-02-08T16:30:58.111Z,8.23
2023-02-08T16:33:27.094Z,7.27
2023-02-08T16:36:01.916Z,8.17
2023-02-08T16:38:32.199Z,7.50
2023-02-08T16:41:13.163Z,7.87
2023-02-08T16:43:44.065Z,8.07
2023-02-08T16:46:25.513Z,8.63
2023-02-08T16:48:55.733Z,9.40
2023-02-08T16:51:26.799Z,9.97
2023-02-08T16:53:57.662Z,10.03
2023-02-08T16:56:27.975Z,10.50
2023-02-08T16:58:56.574Z,10.07
2023-02-08T17:01:25.564Z,10.30
2023-02-08T17:03:54.844Z,10.57
2023-02-08T17:06:30.048Z,10.43
2023-02-08T17:08:59.191Z,10.27
2023-02-08T17:11:30.706Z,11.43
2023-02-08T17:14:00.751Z,11.43
2023-02-08T17:16:32.515Z,12.37
2023-02-08T17:19:01.916Z,11.73
2023-02-08T17:21:31.345Z,10.83
2023-02-08T17:24:00.251Z,11.43
2023-02-08T17:26:33.217Z,10.83
2023-02-08T17:29:02.157Z,12.20
2023-02-08T17:31:31.254Z,11.17
2023-02-08T17:34:05.161Z,10.97
2023-02-08T17:36:35.652Z,12.50
2023-02-08T17:39:08.463Z,10.93
2023-02-08T17:41:41.002Z,13.00
2023-02-08T17:44:11.026Z,13.27
2023-02-08T17:46:40.028Z,13.27
2023-02-08T17:49:09.326Z,13.10
2023-02-08T17:51:38.124Z,12.37
2023-02-08T17:54:07.012Z,11.00
2023-02-08T17:56:37.390Z,10.77
2023-02-08T17:59:08.177Z,14.57
2023-02-08T18:01:37.347Z,16.57
2023-02-08T18:04:09.587Z,16.20
2023-02-08T18:06:39.109Z,13.00
2023-02-08T18:09:08.318Z,11.87
2023-02-08T18:11:36.797Z,13.10
2023-02-08T18:14:07.167Z,13.47
2023-02-08T18:16:37.029Z,12.57
2023-02-08T18:19:07.595Z,13.27
2023-02-08T18:21:36.935Z,14.13
2023-02-08T18:24:07.944Z,12.70
2023-02-08T18:26:37.897Z,13.43
2023-02-08T18:29:10.366Z,13.07
2023-02-08T18:31:41.138Z,13.30
2023-02-08T18:34:10.059Z,13.37
2023-02-08T18:36:39.518Z,13.53
2023-02-08T18:39:09.003Z,13.70
2023-02-08T18:41:38.545Z,12.07
2023-02-08T18:44:12.536Z,12.40
2023-02-08T18:46:42.027Z,12.57
2023-02-08T18:49:13.533Z,12.30
2023-02-08T18:51:44.939Z,13.13
2023-02-08T18:54:15.742Z,13.10
2023-02-08T18:56:47.128Z,12.53
2023-02-08T18:59:20.684Z,14.37
2023-02-08T19:01:50.130Z,13.40
2023-02-08T19:04:22.021Z,13.50
2023-02-08T19:06:51.756Z,12.87
2023-02-08T19:09:21.784Z,13.83
2023-02-08T19:11:52.314Z,13.10
2023-02-08T19:14:23.419Z,12.90
2023-02-08T19:16:53.267Z,16.90
2023-02-08T19:19:23.649Z,15.93
2023-02-08T19:21:53.157Z,14.23
2023-02-08T19:24:22.504Z,13.33
2023-02-08T19:26:53.563Z,15.80
2023-02-08T19:29:24.941Z,20.50
2023-02-08T19:31:57.843Z,18.07
2023-02-08T19:34:30.320Z,19.17
2023-02-08T19:37:00.108Z,15.90
2023-02-08T19:39:29.795Z,14.53
2023-02-08T19:42:00.363Z,14.43
2023-02-08T19:44:32.076Z,14.00
2023-02-08T19:47:01.896Z,13.27
2023-02-08T19:49:32.841Z,14.70
2023-02-08T19:52:05.415Z,13.17
2023-02-08T19:54:35.045Z,13.60
2023-02-08T19:57:04.931Z,11.87
2023-02-08T19:59:40.062Z,13.37
2023-02-08T20:02:15.840Z,13.40
2023-02-08T20:04:47.111Z,11.87
2023-02-08T20:07:16.853Z,12.23
2023-02-08T20:09:46.995Z,11.63
2023-02-08T20:12:16.832Z,11.70
2023-02-08T20:14:48.576Z,11.27
2023-02-08T20:17:18.691Z,12.53
2023-02-08T20:19:47.818Z,13.73
2023-02-08T20:22:21.071Z,17.60
2023-02-08T20:24:50.353Z,18.77
2023-02-08T20:27:26.080Z,17.73
2023-02-08T20:29:59.892Z,14.07
2023-02-08T20:32:32.152Z,15.73
2023-02-08T20:35:01.146Z,17.30
2023-02-08T20:37:31.465Z,18.17
2023-02-08T20:40:01.647Z,17.13
2023-02-08T20:42:31.453Z,16.50
2023-02-08T20:45:04.810Z,14.23
2023-02-08T20:47:45.993Z,14.60
2023-02-08T20:50:19.601Z,16.40
2023-02-08T20:52:49.968Z,15.33
2023-02-08T20:55:19.878Z,15.77
2023-02-08T20:57:49.014Z,14.83
2023-02-08T21:00:24.205Z,13.63
2023-02-08T21:02:56.886Z,14.17
2023-02-08T21:05:26.493Z,14.00
2023-02-08T21:07:55.868Z,12.60
2023-02-08T21:10:25.240Z,13.33
2023-02-08T21:12:55.176Z,15.87
2023-02-08T21:15:25.921Z,16.50
2023-02-08T21:17:54.470Z,16.73
2023-02-08T21:20:22.947Z,15.07
2023-02-08T21:22:52.040Z,13.47
2023-02-08T21:25:20.645Z,15.07
2023-02-08T21:27:48.803Z,14.50
2023-02-08T21:30:19.846Z,14.83
2023-02-08T21:32:50.614Z,14.50
2023-02-08T21:35:18.894Z,14.37
2023-02-08T21:37:47.069Z,13.90
2023-02-08T21:40:15.304Z,13.70
2023-02-08T21:42:43.531Z,13.97
2023-02-08T21:45:12.336Z,13.07
2023-02-08T21:47:41.798Z,12.47
2023-02-08T21:50:29.038Z,12.70
2023-02-08T21:53:14.350Z,12.43
2023-02-08T21:55:46.560Z,12.30
2023-02-08T21:58:15.140Z,14.33
2023-02-08T22:00:43.546Z,13.50
2023-02-08T22:03:11.821Z,14.03
2023-02-08T22:05:58.812Z,14.43
2023-02-08T22:08:27.047Z,13.97
2023-02-08T22:10:58.296Z,16.03
2023-02-08T22:13:26.925Z,15.27
2023-02-08T22:15:55.119Z,13.90
2023-02-08T22:18:23.323Z,14.10
2023-02-08T22:20:54.304Z,13.63
2023-02-08T22:23:22.605Z,13.17
2023-02-08T22:25:50.696Z,13.40
2023-02-08T22:28:18.834Z,14.27
2023-02-08T22:30:49.220Z,15.03
2023-02-08T22:33:17.594Z,12.67
2023-02-08T22:35:45.690Z,13.60
2023-02-08T22:38:15.211Z,13.17
2023-02-08T22:40:43.709Z,13.03
2023-02-08T22:43:12.066Z,12.40
2023-02-08T22:45:40.195Z,12.60
2023-02-08T22:48:08.299Z,11.67
2023-02-08T22:50:38.256Z,11.23
2023-02-08T22:53:06.355Z,12.27
2023-02-08T22:55:35.887Z,11.50
2023-02-08T22:58:04.015Z,11.43
2023-02-08T23:00:32.192Z,12.10
2023-02-08T23:03:00.375Z,12.80
2023-02-08T23:05:28.581Z,11.53
2023-02-08T23:07:56.692Z,11.00
2023-02-08T23:10:24.754Z,12.17
2023-02-08T23:12:54.279Z,12.47
2023-02-08T23:15:22.617Z,11.83
2023-02-08T23:17:50.791Z,11.47
2023-02-08T23:20:19.286Z,11.13
2023-02-08T23:22:47.436Z,11.17
2023-02-08T23:25:15.892Z,10.80
2023-02-08T23:27:44.074Z,10.70
2023-02-08T23:30:14.365Z,10.10
2023-02-08T23:32:42.692Z,10.50
2023-02-08T23:35:11.477Z,10.47
2023-02-08T23:37:39.922Z,9.53
2023-02-08T23:40:09.297Z,10.30
2023-02-08T23:42:37.431Z,10.60
2023-02-08T23:45:06.493Z,11.23
2023-02-08T23:47:36.556Z,10.70
2023-02-08T23:50:04.849Z,10.10
2023-02-08T23:52:33.171Z,11.03
2023-02-08T23:55:01.295Z,9.57
2023-02-08T23:57:33.765Z,11.07
